createdAt,value
2022-08-22T00:01:11.985Z,3.38
2022-08-22T00:02:47.978Z,2.53
2022-08-22T00:03:01.453Z,3.38
2022-08-22T00:03:04.984Z,2.80
2022-08-22T00:03:10.387Z,3.47
2022-08-22T00:03:51.483Z,4.00
2022-08-22T00:06:26.540Z,3.65
2022-08-22T00:09:06.954Z,3.72
2022-08-22T00:11:46.014Z,4.30
2022-08-22T00:14:22.369Z,3.40
2022-08-22T00:16:58.734Z,3.53
2022-08-22T00:19:35.259Z,4.10
2022-08-22T00:22:09.245Z,3.58
2022-08-22T00:24:42.806Z,3.53
2022-08-22T00:27:16.108Z,3.30
2022-08-22T00:29:51.210Z,3.67
2022-08-22T00:32:25.358Z,4.03
2022-08-22T00:35:00.105Z,3.60
2022-08-22T00:37:34.102Z,3.40
2022-08-22T00:40:09.326Z,3.78
2022-08-22T00:43:03.624Z,3.55
2022-08-22T00:45:59.862Z,3.17
2022-08-22T00:49:02.203Z,3.97
2022-08-22T00:51:51.656Z,4.00
2022-08-22T00:54:30.033Z,3.60
2022-08-22T00:57:21.549Z,3.88
2022-08-22T01:00:10.434Z,4.10
2022-08-22T01:03:07.960Z,3.88
2022-08-22T01:05:48.532Z,3.17
2022-08-22T01:08:29.657Z,3.50
2022-08-22T01:11:08.858Z,3.58
2022-08-22T01:13:49.767Z,3.65
2022-08-22T01:16:33.477Z,3.70
2022-08-22T01:19:25.987Z,4.50
2022-08-22T01:22:20.784Z,4.00
2022-08-22T01:25:46.194Z,4.18
2022-08-22T01:29:13.141Z,4.25
2022-08-22T01:32:15.277Z,3.70
2022-08-22T01:35:05.614Z,3.70
2022-08-22T01:37:51.930Z,3.67
2022-08-22T01:40:58.029Z,4.05
2022-08-22T01:43:51.476Z,4.72
2022-08-22T01:46:40.322Z,4.32
2022-08-22T01:49:16.877Z,3.83
2022-08-22T01:51:51.881Z,3.72
2022-08-22T01:54:42.012Z,3.40
2022-08-22T01:57:11.494Z,3.60
2022-08-22T01:59:42.916Z,3.50
2022-08-22T02:02:32.701Z,3.67
2022-08-22T02:05:07.951Z,4.18
2022-08-22T02:07:49.326Z,4.13
2022-08-22T02:10:22.080Z,3.88
2022-08-22T02:15:28.139Z,3.60
2022-08-22T02:18:10.812Z,3.58
2022-08-22T02:20:44.934Z,3.75
2022-08-22T02:23:23.803Z,4.43
2022-08-22T02:25:56.983Z,4.05
2022-08-22T02:28:36.602Z,4.18
2022-08-22T02:31:10.549Z,4.07
2022-08-22T02:33:53.071Z,4.38
2022-08-22T02:36:27.152Z,3.50
2022-08-22T02:39:06.070Z,3.97
2022-08-22T02:41:47.046Z,3.92
2022-08-22T02:44:20.728Z,3.63
2022-08-22T02:46:56.683Z,5.18
2022-08-22T02:49:34.170Z,3.65
2022-08-22T02:52:10.408Z,4.10
2022-08-22T02:54:48.884Z,4.28
2022-08-22T02:57:24.374Z,4.65
2022-08-22T03:00:31.077Z,4.47
2022-08-22T03:03:07.356Z,4.18
2022-08-22T03:05:49.148Z,4.10
2022-08-22T03:08:23.258Z,3.70
2022-08-22T03:11:04.258Z,3.85
2022-08-22T03:13:41.796Z,4.13
2022-08-22T03:16:24.092Z,4.05
2022-08-22T03:19:00.249Z,3.55
2022-08-22T03:21:33.865Z,4.20
2022-08-22T03:24:27.141Z,4.20
2022-08-22T03:27:03.642Z,3.92
2022-08-22T03:29:35.880Z,4.20
2022-08-22T03:32:15.994Z,4.60
2022-08-22T03:34:57.584Z,4.18
2022-08-22T03:37:33.833Z,3.67
2022-08-22T03:40:07.432Z,3.60
2022-08-22T03:42:54.163Z,3.90
2022-08-22T03:45:54.146Z,3.83
2022-08-22T03:49:07.180Z,3.85
2022-08-22T03:51:49.554Z,4.00
2022-08-22T03:54:50.508Z,4.53
2022-08-22T03:58:02.810Z,3.95
2022-08-22T04:00:49.225Z,3.67
2022-08-22T04:04:14.796Z,3.50
2022-08-22T04:07:11.144Z,3.50
2022-08-22T04:10:17.938Z,3.70
2022-08-22T04:13:05.705Z,3.80
2022-08-22T04:16:05.133Z,3.78
2022-08-22T04:18:53.580Z,3.88
2022-08-22T04:21:42.698Z,4.20
2022-08-22T04:24:43.031Z,3.10
2022-08-22T04:27:19.982Z,4.07
2022-08-22T04:29:59.764Z,3.63
2022-08-22T04:32:36.602Z,3.80
2022-08-22T04:35:09.169Z,4.13
2022-08-22T04:37:45.530Z,4.00
2022-08-22T04:40:21.744Z,3.63
2022-08-22T04:42:55.249Z,4.05
2022-08-22T04:45:30.771Z,3.72
2022-08-22T04:48:07.840Z,3.20
2022-08-22T04:50:43.015Z,3.70
2022-08-22T04:53:23.204Z,3.58
2022-08-22T04:56:05.386Z,3.25
2022-08-22T04:58:56.687Z,3.47
2022-08-22T05:01:38.334Z,3.72
2022-08-22T05:04:09.234Z,3.70
2022-08-22T05:06:42.096Z,4.50
2022-08-22T05:09:16.358Z,3.92
2022-08-22T05:11:46.434Z,3.45
2022-08-22T05:14:39.446Z,3.83
2022-08-22T05:17:11.977Z,3.85
2022-08-22T05:19:50.562Z,3.47
2022-08-22T05:22:25.129Z,4.30
2022-08-22T05:24:58.063Z,3.67
2022-08-22T05:27:29.837Z,3.85
2022-08-22T05:30:03.306Z,3.80
2022-08-22T05:32:41.667Z,4.18
2022-08-22T05:35:10.893Z,3.78
2022-08-22T05:37:43.980Z,3.67
2022-08-22T05:40:19.109Z,4.07
2022-08-22T05:42:47.662Z,4.20
2022-08-22T05:45:18.142Z,4.22
2022-08-22T05:47:50.664Z,3.97
2022-08-22T05:50:21.317Z,3.60
2022-08-22T05:53:02.665Z,3.85
2022-08-22T05:55:33.821Z,4.30
2022-08-22T05:58:18.197Z,4.70
2022-08-22T06:00:54.658Z,4.10
2022-08-22T06:03:29.332Z,3.60
2022-08-22T06:06:03.973Z,3.72
2022-08-22T06:08:37.216Z,3.60
2022-08-22T06:11:13.394Z,3.80
2022-08-22T06:13:48.775Z,3.65
2022-08-22T06:16:24.660Z,4.10
2022-08-22T06:18:55.063Z,3.25
2022-08-22T06:21:38.516Z,3.63
2022-08-22T06:24:10.698Z,3.55
2022-08-22T06:26:46.058Z,3.80
2022-08-22T06:29:23.492Z,4.28
2022-08-22T06:31:52.170Z,4.07
2022-08-22T06:34:27.331Z,3.22
2022-08-22T06:36:58.332Z,4.53
2022-08-22T06:39:31.133Z,4.47
2022-08-22T06:44:35.824Z,3.30
2022-08-22T06:47:09.257Z,4.65
2022-08-22T06:49:40.357Z,4.18
2022-08-22T06:52:12.752Z,3.90
2022-08-22T06:54:47.204Z,4.28
2022-08-22T06:57:30.613Z,5.03
2022-08-22T07:00:02.228Z,4.95
2022-08-22T07:02:37.735Z,4.50
2022-08-22T07:05:10.931Z,4.68
2022-08-22T07:07:39.109Z,4.40
2022-08-22T07:10:07.992Z,5.00
2022-08-22T07:12:39.158Z,4.57
2022-08-22T07:15:14.364Z,4.50
2022-08-22T07:17:50.865Z,4.90
2022-08-22T07:20:26.754Z,5.53
2022-08-22T07:22:59.038Z,5.00
2022-08-22T07:25:29.190Z,5.22
2022-08-22T07:28:16.298Z,4.78
2022-08-22T07:30:55.270Z,4.13
2022-08-22T07:33:36.110Z,5.30
2022-08-22T07:36:22.998Z,4.60
2022-08-22T07:39:07.218Z,4.75
2022-08-22T07:41:51.959Z,4.07
2022-08-22T07:44:23.797Z,4.22
2022-08-22T07:46:58.394Z,4.53
2022-08-22T07:49:32.964Z,5.38
2022-08-22T07:52:08.348Z,4.40
2022-08-22T07:54:41.494Z,4.95
2022-08-22T07:57:13.812Z,4.28
2022-08-22T08:00:04.299Z,5.13
2022-08-22T08:02:46.300Z,5.00
2022-08-22T08:05:15.807Z,5.07
2022-08-22T08:07:47.887Z,5.82
2022-08-22T08:10:20.525Z,4.97
2022-08-22T08:13:01.728Z,5.72
2022-08-22T08:15:33.114Z,6.25
2022-08-22T08:18:11.198Z,5.60
2022-08-22T08:20:39.991Z,5.38
2022-08-22T08:23:19.512Z,5.82
2022-08-22T08:26:01.501Z,5.43
2022-08-22T08:28:34.976Z,5.00
2022-08-22T08:31:20.572Z,5.60
2022-08-22T08:33:51.753Z,5.95
2022-08-22T08:36:40.388Z,5.18
2022-08-22T08:39:19.537Z,4.57
2022-08-22T08:42:27.298Z,4.45
2022-08-22T08:45:18.446Z,4.68
2022-08-22T08:47:59.637Z,5.03
2022-08-22T08:50:43.299Z,4.40
2022-08-22T08:53:48.233Z,4.40
2022-08-22T08:56:26.811Z,4.60
2022-08-22T08:59:09.970Z,4.35
2022-08-22T09:02:07.522Z,3.22
2022-08-22T09:05:03.113Z,3.85
2022-08-22T09:08:03.118Z,4.00
2022-08-22T09:11:10.009Z,3.92
2022-08-22T09:13:55.234Z,3.35
2022-08-22T09:16:46.300Z,4.18
2022-08-22T09:19:49.087Z,4.05
2022-08-22T09:23:02.636Z,4.18
2022-08-22T09:25:38.723Z,2.53
2022-08-22T09:28:17.497Z,3.13
2022-08-22T09:31:21.944Z,3.47
2022-08-22T09:34:01.800Z,3.58
2022-08-22T09:36:42.935Z,3.72
2022-08-22T09:39:17.540Z,3.60
2022-08-22T09:41:59.099Z,3.20
2022-08-22T09:44:39.649Z,3.30
2022-08-22T09:47:24.251Z,3.22
2022-08-22T09:50:03.603Z,4.00
2022-08-22T09:52:59.173Z,4.03
2022-08-22T09:55:41.706Z,3.75
2022-08-22T09:58:21.289Z,3.92
2022-08-22T10:00:56.370Z,3.33
2022-08-22T10:03:52.187Z,3.40
2022-08-22T10:06:28.321Z,3.03
2022-08-22T10:09:04.490Z,3.45
2022-08-22T10:11:43.322Z,4.28
2022-08-22T10:14:22.352Z,3.35
2022-08-22T10:17:01.929Z,4.05
2022-08-22T10:19:38.157Z,4.28
2022-08-22T10:22:30.370Z,4.07
2022-08-22T10:25:09.246Z,3.13
2022-08-22T10:28:14.828Z,3.97
2022-08-22T10:30:52.424Z,3.85
2022-08-22T10:33:29.052Z,3.83
2022-08-22T10:36:05.389Z,4.18
2022-08-22T10:38:46.526Z,4.22
2022-08-22T10:41:26.894Z,3.55
2022-08-22T10:44:06.106Z,3.90
2022-08-22T10:46:42.077Z,3.22
2022-08-22T10:49:17.958Z,4.40
2022-08-22T10:51:53.520Z,3.42
2022-08-22T10:54:32.601Z,4.32
2022-08-22T10:57:14.994Z,3.47
2022-08-22T11:00:00.857Z,4.07
2022-08-22T11:02:46.901Z,2.97
2022-08-22T11:05:31.080Z,2.72
2022-08-22T11:08:23.564Z,2.67
2022-08-22T11:11:07.165Z,3.58
2022-08-22T11:13:49.725Z,2.80
2022-08-22T11:16:30.337Z,3.90
2022-08-22T11:19:15.966Z,2.90
2022-08-22T11:21:53.294Z,3.08
2022-08-22T11:25:06.142Z,3.58
2022-08-22T11:27:45.781Z,4.38
2022-08-22T11:30:18.581Z,2.85
2022-08-22T11:33:16.733Z,3.35
2022-08-22T11:35:53.091Z,3.40
2022-08-22T11:38:36.199Z,3.45
2022-08-22T11:41:13.357Z,3.28
2022-08-22T11:43:50.633Z,3.30
2022-08-22T11:46:25.513Z,3.22
2022-08-22T11:49:17.046Z,2.90
2022-08-22T11:52:05.798Z,3.03
2022-08-22T11:54:53.578Z,2.80
2022-08-22T11:57:32.861Z,3.08
2022-08-22T12:00:20.631Z,2.83
2022-08-22T12:03:23.595Z,2.33
2022-08-22T12:08:49.464Z,3.08
2022-08-22T12:11:26.400Z,2.50
2022-08-22T12:14:03.982Z,2.50
2022-08-22T12:16:45.056Z,3.08
2022-08-22T12:19:25.373Z,2.42
2022-08-22T12:22:32.679Z,2.60
2022-08-22T12:25:12.614Z,2.65
2022-08-22T12:28:02.610Z,2.10
2022-08-22T12:30:37.289Z,2.58
2022-08-22T12:33:29.900Z,2.85
2022-08-22T12:36:18.015Z,2.38
2022-08-22T12:39:03.627Z,2.70
2022-08-22T12:42:07.172Z,2.33
2022-08-22T12:44:47.484Z,2.00
2022-08-22T12:47:34.515Z,2.80
2022-08-22T12:50:19.673Z,2.78
2022-08-22T12:53:07.679Z,2.47
2022-08-22T12:56:04.942Z,1.83
2022-08-22T12:58:59.095Z,2.38
2022-08-22T13:01:34.484Z,1.92
2022-08-22T13:04:08.960Z,1.98
2022-08-22T13:06:53.441Z,2.05
2022-08-22T13:09:30.774Z,1.95
2022-08-22T13:12:04.367Z,2.03
2022-08-22T13:14:35.208Z,2.35
2022-08-22T13:17:15.208Z,2.55
2022-08-22T13:20:04.460Z,2.22
2022-08-22T13:22:36.291Z,2.03
2022-08-22T13:25:25.513Z,2.10
2022-08-22T13:27:56.702Z,2.28
2022-08-22T13:30:31.394Z,1.77
2022-08-22T13:33:08.521Z,1.80
2022-08-22T13:35:44.557Z,2.70
2022-08-22T13:38:26.235Z,1.98
2022-08-22T13:40:57.224Z,1.85
2022-08-22T13:43:29.736Z,1.70
2022-08-22T13:48:49.899Z,1.77
2022-08-22T13:51:26.149Z,2.15
2022-08-22T13:54:03.064Z,1.70
2022-08-22T13:56:47.661Z,2.75
2022-08-22T13:59:47.452Z,1.70
2022-08-22T14:02:32.373Z,1.92
2022-08-22T14:05:07.542Z,1.63
2022-08-22T14:07:48.817Z,2.20
2022-08-22T14:10:24.828Z,1.50
2022-08-22T14:13:32.149Z,2.03
2022-08-22T14:16:02.590Z,1.80
2022-08-22T14:18:45.512Z,2.08
2022-08-22T14:23:53.262Z,2.08
2022-08-22T14:26:32.923Z,1.50
2022-08-22T14:29:08.982Z,1.75
2022-08-22T14:31:37.309Z,1.45
2022-08-22T14:34:10.473Z,1.58
2022-08-22T14:36:46.734Z,1.65
2022-08-22T14:39:34.858Z,1.73
2022-08-22T14:42:09.845Z,1.23
2022-08-22T14:44:44.755Z,1.45
2022-08-22T14:47:34.456Z,1.33
2022-08-22T14:50:38.934Z,1.50
2022-08-22T14:53:09.819Z,1.40
2022-08-22T14:55:42.218Z,1.60
2022-08-22T14:58:17.967Z,0.90
2022-08-22T15:00:56.953Z,0.82
2022-08-22T15:03:29.696Z,1.27
2022-08-22T15:06:01.250Z,1.13
2022-08-22T15:08:32.374Z,1.20
2022-08-22T15:11:14.109Z,0.77
2022-08-22T15:13:52.696Z,0.97
2022-08-22T15:16:24.391Z,0.93
2022-08-22T15:18:53.358Z,1.00
2022-08-22T15:21:25.305Z,0.98
2022-08-22T15:23:55.939Z,1.10
2022-08-22T15:26:32.653Z,1.00
2022-08-22T15:29:08.286Z,1.30
2022-08-22T15:31:39.761Z,1.25
2022-08-22T15:34:13.925Z,1.67
2022-08-22T15:37:09.083Z,4.97
2022-08-22T15:40:00.520Z,8.07
2022-08-22T15:42:35.862Z,5.43
2022-08-22T15:45:05.531Z,4.38
2022-08-22T15:47:39.715Z,1.02
2022-08-22T15:50:15.401Z,1.08
2022-08-22T15:53:07.807Z,1.73
2022-08-22T15:55:37.034Z,1.08
2022-08-22T15:58:13.137Z,1.10
2022-08-22T16:00:45.547Z,2.30
2022-08-22T16:03:24.888Z,0.88
2022-08-22T16:05:56.147Z,0.88
2022-08-22T16:08:29.622Z,0.95
2022-08-22T16:11:29.695Z,1.35
2022-08-22T16:14:22.523Z,1.45
2022-08-22T16:16:59.763Z,1.02
2022-08-22T16:19:29.451Z,0.90
2022-08-22T16:22:21.738Z,1.20
2022-08-22T16:25:10.316Z,0.57
2022-08-22T16:27:56.449Z,0.90
2022-08-22T16:30:39.475Z,0.88
2022-08-22T16:33:12.246Z,0.70
2022-08-22T16:36:26.076Z,1.40
2022-08-22T16:38:57.757Z,0.90
2022-08-22T16:41:30.714Z,1.40
2022-08-22T16:44:24.079Z,1.15
2022-08-22T16:46:55.271Z,1.10
2022-08-22T16:49:29.541Z,1.08
2022-08-22T16:52:33.353Z,1.35
2022-08-22T16:55:03.338Z,0.93
2022-08-22T16:57:59.307Z,0.85
2022-08-22T17:00:41.187Z,1.23
2022-08-22T17:03:19.739Z,1.67
2022-08-22T17:05:55.500Z,1.30
2022-08-22T17:08:38.389Z,1.10
2022-08-22T17:11:45.495Z,1.10
2022-08-22T17:14:25.404Z,1.77
2022-08-22T17:17:02.587Z,1.25
2022-08-22T17:19:45.369Z,1.45
2022-08-22T17:22:29.134Z,1.38
2022-08-22T17:25:17.830Z,1.30
2022-08-22T17:27:51.522Z,1.73
2022-08-22T17:30:24.555Z,1.55
2022-08-22T17:33:16.670Z,1.63
2022-08-22T17:36:02.002Z,1.45
2022-08-22T17:38:45.451Z,2.28
2022-08-22T17:41:27.609Z,1.45
2022-08-22T17:44:08.925Z,1.05
2022-08-22T17:46:56.412Z,1.13
2022-08-22T17:49:46.634Z,1.85
2022-08-22T17:52:22.556Z,1.15
2022-08-22T17:54:57.116Z,1.30
2022-08-22T17:57:30.665Z,1.50
2022-08-22T18:00:03.374Z,1.10
2022-08-22T18:02:36.014Z,1.45
2022-08-22T18:05:08.904Z,1.65
2022-08-22T18:07:53.450Z,1.80
2022-08-22T18:10:31.366Z,1.55
2022-08-22T18:13:07.318Z,1.10
2022-08-22T18:15:43.257Z,1.48
2022-08-22T18:18:24.050Z,1.30
2022-08-22T18:21:01.033Z,1.42
2022-08-22T18:23:40.411Z,1.30
2022-08-22T18:26:24.329Z,1.33
2022-08-22T18:29:00.754Z,1.10
2022-08-22T18:31:38.685Z,1.00
2022-08-22T18:34:17.434Z,2.17
2022-08-22T18:36:55.355Z,1.52
2022-08-22T18:39:30.670Z,1.58
2022-08-22T18:42:04.581Z,1.48
2022-08-22T18:44:35.652Z,1.10
2022-08-22T18:47:13.493Z,1.33
2022-08-22T18:49:46.423Z,1.52
2022-08-22T18:52:33.996Z,2.03
2022-08-22T18:55:28.315Z,1.30
2022-08-22T18:58:37.407Z,1.25
2022-08-22T19:01:23.302Z,1.60
2022-08-22T19:04:19.293Z,2.28
2022-08-22T19:07:12.510Z,1.42
2022-08-22T19:10:20.605Z,1.52
2022-08-22T19:13:10.485Z,1.55
2022-08-22T19:15:52.073Z,1.60
2022-08-22T19:18:44.997Z,1.52
2022-08-22T19:24:08.962Z,1.27
2022-08-22T19:26:42.987Z,1.60
2022-08-22T19:29:48.900Z,1.38
2022-08-22T19:32:50.964Z,1.20
2022-08-22T19:35:23.407Z,1.50
2022-08-22T19:37:53.762Z,1.55
2022-08-22T19:40:53.286Z,1.83
2022-08-22T19:43:32.872Z,1.25
2022-08-22T19:46:05.416Z,1.23
2022-08-22T19:51:16.726Z,1.50
2022-08-22T19:56:37.710Z,1.60
2022-08-22T19:59:21.698Z,1.25
2022-08-22T20:02:00.913Z,1.23
2022-08-22T20:05:03.560Z,1.50
2022-08-22T20:07:45.816Z,1.50
2022-08-22T20:10:28.138Z,1.35
2022-08-22T20:13:07.716Z,1.65
2022-08-22T20:16:03.161Z,1.60
2022-08-22T20:19:00.517Z,1.60
2022-08-22T20:21:49.750Z,1.30
2022-08-22T20:24:24.004Z,1.30
2022-08-22T20:27:12.920Z,1.48
2022-08-22T20:29:48.231Z,1.27
2022-08-22T20:32:23.133Z,1.58
2022-08-22T20:35:02.694Z,1.75
2022-08-22T20:38:04.760Z,1.50
2022-08-22T20:40:56.105Z,1.65
2022-08-22T20:43:29.296Z,1.35
2022-08-22T20:46:09.426Z,1.63
2022-08-22T20:48:45.918Z,1.60
2022-08-22T20:51:17.774Z,1.90
2022-08-22T20:53:53.365Z,1.50
2022-08-22T20:56:34.428Z,1.30
2022-08-22T20:59:16.770Z,1.50
2022-08-22T21:01:46.101Z,1.63
2022-08-22T21:04:20.843Z,1.77
2022-08-22T21:06:54.656Z,1.92
2022-08-22T21:09:40.541Z,1.48
2022-08-22T21:12:09.618Z,1.45
2022-08-22T21:14:45.946Z,1.73
2022-08-22T21:17:19.330Z,1.98
2022-08-22T21:19:49.006Z,1.83
2022-08-22T21:22:20.133Z,2.00
2022-08-22T21:24:48.272Z,1.67
2022-08-22T21:27:25.813Z,1.77
2022-08-22T21:29:54.093Z,2.20
2022-08-22T21:32:31.228Z,2.13
2022-08-22T21:35:01.795Z,2.03
2022-08-22T21:37:37.309Z,3.53
2022-08-22T21:40:14.589Z,2.35
2022-08-22T21:42:45.635Z,1.90
2022-08-22T21:45:28.325Z,2.03
2022-08-22T21:47:56.787Z,2.10
2022-08-22T21:50:34.797Z,1.58
2022-08-22T21:53:10.232Z,1.88
2022-08-22T21:55:42.969Z,1.50
2022-08-22T21:58:35.705Z,2.33
2022-08-22T22:01:28.821Z,1.48
2022-08-22T22:03:58.327Z,1.83
2022-08-22T22:06:28.510Z,1.55
2022-08-22T22:08:56.851Z,1.55
2022-08-22T22:11:25.170Z,2.03
2022-08-22T22:13:53.218Z,1.50
2022-08-22T22:16:26.690Z,1.60
2022-08-22T22:18:55.323Z,1.80
2022-08-22T22:21:23.509Z,1.75
2022-08-22T22:23:53.062Z,2.05
2022-08-22T22:26:22.095Z,2.28
2022-08-22T22:28:51.710Z,1.40
2022-08-22T22:31:20.161Z,1.52
2022-08-22T22:33:48.322Z,2.13
2022-08-22T22:36:19.509Z,1.92
2022-08-22T22:38:48.305Z,1.70
2022-08-22T22:41:25.379Z,2.53
2022-08-22T22:43:54.013Z,1.80
2022-08-22T22:46:22.838Z,2.28
2022-08-22T22:48:53.067Z,1.83
2022-08-22T22:51:21.218Z,1.75
2022-08-22T22:53:49.388Z,1.75
2022-08-22T22:56:21.487Z,3.17
2022-08-22T22:59:00.851Z,2.17
2022-08-22T23:01:40.379Z,2.08
2022-08-22T23:04:09.248Z,1.73
2022-08-22T23:06:37.446Z,2.30
2022-08-22T23:09:05.703Z,1.90
2022-08-22T23:11:33.895Z,1.55
2022-08-22T23:14:04.107Z,1.60
2022-08-22T23:16:37.131Z,1.77
2022-08-22T23:19:09.308Z,2.65
2022-08-22T23:21:37.638Z,2.63
2022-08-22T23:24:06.162Z,2.22
2022-08-22T23:26:34.330Z,2.20
2022-08-22T23:29:07.286Z,2.47
2022-08-22T23:31:37.471Z,2.22
2022-08-22T23:34:07.814Z,1.90
2022-08-22T23:36:36.272Z,2.20
2022-08-22T23:39:18.772Z,2.00
2022-08-22T23:41:47.570Z,2.97
2022-08-22T23:44:19.870Z,2.03
2022-08-22T23:46:48.905Z,1.92
2022-08-22T23:49:17.761Z,1.92
2022-08-22T23:51:47.234Z,2.50
2022-08-22T23:54:16.435Z,2.50
2022-08-22T23:56:46.482Z,2.97
2022-08-22T23:59:18.345Z,1.90
